Time;durP1;ratioP1;P1;durP2;ratioP2;P2;SDS_P1;SDS_P2;PMS_P1;PMS_P2;Temp;Humidity;BMP_temperature;BMP_pressure;BME280_temperature;BME280_humidity;BME280_pressure;Samples;Min_cycle;Max_cycle;Signal;HPM_P1;HPM_P2
2022/06/24 00:01:30;;;;;;;21.40;8.77;;;;;;;;;;5301518;28;20047;-81
2022/06/24 00:04:01;;;;;;;13.57;8.53;;;;;;;;;;5311042;27;20024;-81
2022/06/24 00:06:49;;;;;;;13.47;9.97;;;;;;;;;;5308128;27;20036;-81
2022/06/24 00:09:20;;;;;;;12.88;9.52;;;;;;;;;;5291968;28;20021;-81
2022/06/24 00:12:02;;;;;;;15.52;11.48;;;;;;;;;;5292949;28;20024;-81
2022/06/24 00:14:34;;;;;;;22.80;12.70;;;;;;;;;;5302449;28;20541;-81
2022/06/24 00:17:06;;;;;;;31.95;19.88;;;;;;;;;;5311148;28;20028;-80
2022/06/24 00:19:56;;;;;;;50.67;25.23;;;;;;;;;;5310168;27;20038;-80
2022/06/24 00:22:28;;;;;;;42.85;29.63;;;;;;;;;;5315602;28;20028;-82
2022/06/24 00:25:23;;;;;;;37.77;30.50;;;;;;;;;;4261165;27;17209540;-82
2022/06/24 00:30:13;;;;;;;;;;;;;;;;;;511491;28;93346151;-81
2022/06/24 00:34:41;;;;;;;;;;;;;;;;;;3;86291265;87031541;-82
2022/06/24 00:39:10;;;;;;;;;;;;;;;;;;3;87030477;94534922;-82
2022/06/24 00:43:45;;;;;;;;;;;;;;;;;;3;94214909;94537842;-81
2022/06/24 00:48:22;;;;;;;;;;;;;;;;;;3;87035576;94437694;-81
2022/06/24 00:52:50;;;;;;;;;;;;;;;;;;3;87031192;87035281;-82
2022/06/24 00:57:13;;;;;;;;;;;;;;;;;;3;82224006;94534735;-82
2022/06/24 01:01:47;;;;;;;;;;;;;;;;;;3;92907559;94537554;-81
2022/06/24 01:06:07;;;;;;;;;;;;;;;;;;3;71673972;94537258;-81
2022/06/24 01:10:38;;;;;;;;;;;;;;;;;;3;87614742;88531357;-81
2022/06/24 01:15:07;;;;;;;;;;;;;;;;;;3;87033333;94534764;-81
2022/06/24 01:19:42;;;;;;;;;;;;;;;;;;3;93864700;94536071;-81
2022/06/24 01:24:18;;;;;;;;;;;;;;;;;;3;87032014;94534736;-81
2022/06/24 01:28:47;;;;;;;;;;;;;;;;;;3;86750583;86887771;-81
2022/06/24 01:32:32;;;;;;;;;;;;;;;;;;4;20773306;81962088;-81
2022/06/24 01:37:00;;;;;;;;;;;;;;;;;;3;86445339;94537702;-80
2022/06/24 01:41:36;;;;;;;;;;;;;;;;;;3;94536198;94537392;-81
2022/06/24 01:46:12;;;;;;;;;;;;;;;;;;3;87032166;94534003;-80
2022/06/24 01:50:41;;;;;;;;;;;;;;;;;;3;87029136;87030044;-80
2022/06/24 01:55:13;;;;;;;;;;;;;;;;;;3;88532821;94533007;-80
2022/06/24 01:59:50;;;;;;;;;;;;;;;;;;3;94534591;94536517;-80
2022/06/24 02:04:26;;;;;;;;;;;;;;;;;;3;87031856;94533276;-80
2022/06/24 02:08:51;;;;;;;;;;;;;;;;;;3;82590432;87033332;-80
2022/06/24 02:13:26;;;;;;;;;;;;;;;;;;3;87029210;94532751;-80
2022/06/24 02:18:02;;;;;;;;;;;;;;;;;;3;94480347;94534444;-80
2022/06/24 02:22:39;;;;;;;;;;;;;;;;;;3;87031665;94534473;-80
2022/06/24 02:27:07;;;;;;;;;;;;;;;;;;3;86451665;87033487;-80
2022/06/24 02:31:16;;;;;;;5.60;1.75;;;;;;;;;;339804;28;52452115;-83
2022/06/24 02:33:48;;;;;;;;;;;;;;;;;;3;56729522;94534296;-80
2022/06/24 02:36:19;;;;;;;6.80;3.00;;;;;;;;;;1753893;28;27184617;-81
2022/06/24 02:38:50;;;;;;;3.50;3.15;;;;;;;;;;5105485;28;4993588;-81
2022/06/24 02:41:22;;;;;;;3.10;2.80;;;;;;;;;;5276384;28;20036;-81
2022/06/24 02:43:53;;;;;;;3.55;3.25;;;;;;;;;;5271722;28;20036;-81
2022/06/24 02:46:24;;;;;;;3.00;2.75;;;;;;;;;;5290740;28;20029;-81
2022/06/24 02:48:55;;;;;;;3.67;3.20;;;;;;;;;;5295913;28;20056;-81
2022/06/24 02:51:26;;;;;;;2.73;2.50;;;;;;;;;;5296167;27;20025;-81
2022/06/24 02:53:58;;;;;;;3.53;2.67;;;;;;;;;;5306197;27;20285;-81
2022/06/24 02:56:29;;;;;;;3.97;3.20;;;;;;;;;;5315917;27;20034;-81
2022/06/24 02:59:00;;;;;;;5.97;3.70;;;;;;;;;;5314624;27;20271;-81
2022/06/24 03:01:31;;;;;;;4.40;3.53;;;;;;;;;;5318371;27;20384;-79
2022/06/24 03:04:02;;;;;;;5.23;3.97;;;;;;;;;;5333105;27;20266;-81
2022/06/24 03:06:34;;;;;;;4.60;3.90;;;;;;;;;;5348533;27;20028;-79
2022/06/24 03:09:05;;;;;;;5.00;4.20;;;;;;;;;;5322812;28;20053;-79
2022/06/24 03:11:36;;;;;;;4.77;4.07;;;;;;;;;;5334973;27;20306;-79
2022/06/24 03:14:07;;;;;;;4.97;4.00;;;;;;;;;;5303632;28;20382;-80
2022/06/24 03:16:38;;;;;;;6.80;4.50;;;;;;;;;;5313814;28;20707;-80
2022/06/24 03:19:09;;;;;;;4.43;4.03;;;;;;;;;;5300340;28;89496;-81
2022/06/24 03:21:41;;;;;;;5.53;4.85;;;;;;;;;;3549002;27;13488934;-80
2022/06/24 03:24:12;;;;;;;5.33;4.53;;;;;;;;;;5314489;28;39232;-80
2022/06/24 03:26:43;;;;;;;5.07;4.63;;;;;;;;;;5316979;27;20376;-80
2022/06/24 03:29:14;;;;;;;5.47;4.97;;;;;;;;;;5310537;27;20119;-80
2022/06/24 03:31:45;;;;;;;5.67;4.70;;;;;;;;;;5313610;27;20028;-80
2022/06/24 03:34:17;;;;;;;5.07;4.68;;;;;;;;;;5307886;27;20272;-80
2022/06/24 03:36:49;;;;;;;6.87;6.27;;;;;;;;;;5314422;27;20028;-80
2022/06/24 03:39:20;;;;;;;8.98;6.35;;;;;;;;;;5312205;28;20032;-80
2022/06/24 03:41:51;;;;;;;8.20;6.20;;;;;;;;;;5325342;27;20700;-80
2022/06/24 03:44:22;;;;;;;7.32;6.72;;;;;;;;;;5310437;27;20036;-80
2022/06/24 03:46:54;;;;;;;6.60;6.03;;;;;;;;;;5325448;27;20088;-80
2022/06/24 03:49:25;;;;;;;5.22;4.72;;;;;;;;;;5312368;27;20051;-80
2022/06/24 03:51:56;;;;;;;7.47;6.77;;;;;;;;;;5305959;27;20031;-80
2022/06/24 03:54:27;;;;;;;7.63;6.60;;;;;;;;;;5300097;28;20115;-80
2022/06/24 03:56:58;;;;;;;7.93;6.07;;;;;;;;;;5312159;27;20326;-81
2022/06/24 03:59:30;;;;;;;6.33;5.73;;;;;;;;;;5322659;28;20312;-80
2022/06/24 04:02:01;;;;;;;6.32;5.72;;;;;;;;;;5315448;27;20310;-80
2022/06/24 04:04:32;;;;;;;7.88;6.97;;;;;;;;;;5316251;28;20412;-80
2022/06/24 04:07:03;;;;;;;11.13;7.53;;;;;;;;;;5330788;27;20024;-80
2022/06/24 04:09:35;;;;;;;13.02;8.57;;;;;;;;;;5301839;28;20320;-80
2022/06/24 04:12:06;;;;;;;13.90;9.00;;;;;;;;;;5313802;27;20020;-81
2022/06/24 04:17:27;;;;;;;11.32;8.65;;;;;;;;;;5323727;27;20460;-80
2022/06/24 04:19:58;;;;;;;9.70;8.87;;;;;;;;;;5309087;28;20027;-81
2022/06/24 04:22:29;;;;;;;7.33;6.70;;;;;;;;;;5318598;27;20286;-81
2022/06/24 04:25:01;;;;;;;6.75;6.13;;;;;;;;;;5316698;27;20612;-80
2022/06/24 04:27:32;;;;;;;9.70;7.90;;;;;;;;;;5316090;27;20145;-80
2022/06/24 04:30:07;;;;;;;11.35;8.68;;;;;;;;;;5319829;28;20351;-80
2022/06/24 04:32:39;;;;;;;11.23;10.23;;;;;;;;;;5314369;27;20038;-80
2022/06/24 04:35:10;;;;;;;11.75;10.65;;;;;;;;;;5317172;28;20024;-80
2022/06/24 04:37:41;;;;;;;10.50;9.50;;;;;;;;;;5308810;27;20039;-80
2022/06/24 04:40:13;;;;;;;12.15;10.98;;;;;;;;;;5314498;27;20028;-80
2022/06/24 04:44:39;;;;;;;;;;;;;;;;;;1494780;28;70399888;-80
2022/06/24 04:47:10;;;;;;;13.07;11.57;;;;;;;;;;3458192;28;48848742;-81
2022/06/24 04:50:35;;;;;;;;;;;;;;;;;;4455859;27;69790697;-80
2022/06/24 04:53:06;;;;;;;14.15;11.93;;;;;;;;;;2982479;27;40408545;-80
2022/06/24 04:55:37;;;;;;;12.85;11.55;;;;;;;;;;5322142;28;32145;-80
2022/06/24 04:58:09;;;;;;;13.87;12.37;;;;;;;;;;5315004;27;20700;-80
2022/06/24 05:00:40;;;;;;;13.87;12.50;;;;;;;;;;5316849;28;20287;-81
2022/06/24 05:03:11;;;;;;;14.48;12.18;;;;;;;;;;5287876;27;20647;-80
2022/06/24 05:05:45;;;;;;;14.37;12.90;;;;;;;;;;5312856;28;20400;-80
2022/06/24 05:08:16;;;;;;;11.98;10.85;;;;;;;;;;5326890;27;20025;-80
2022/06/24 05:10:47;;;;;;;13.47;12.03;;;;;;;;;;5313423;28;20399;-80
2022/06/24 05:13:18;;;;;;;14.80;13.30;;;;;;;;;;5317740;27;20036;-80
2022/06/24 05:15:49;;;;;;;13.43;12.03;;;;;;;;;;5315331;27;20028;-80
2022/06/24 05:18:21;;;;;;;15.43;14.03;;;;;;;;;;5305079;27;20031;-80
2022/06/24 05:20:52;;;;;;;14.50;13.27;;;;;;;;;;5310551;27;20268;-80
2022/06/24 05:23:23;;;;;;;15.80;14.30;;;;;;;;;;5316269;27;20365;-80
2022/06/24 05:25:54;;;;;;;16.00;14.60;;;;;;;;;;5307251;27;20079;-80
2022/06/24 05:28:25;;;;;;;15.88;14.48;;;;;;;;;;5316177;27;20039;-80
2022/06/24 05:30:57;;;;;;;16.37;14.83;;;;;;;;;;5320296;27;20181;-80
2022/06/24 05:33:30;;;;;;;16.45;14.85;;;;;;;;;;5312268;27;20115;-80
2022/06/24 05:36:01;;;;;;;17.60;15.20;;;;;;;;;;5315957;27;20119;-80
2022/06/24 05:38:33;;;;;;;16.85;14.73;;;;;;;;;;5289132;27;20345;-80
2022/06/24 05:41:04;;;;;;;18.27;14.63;;;;;;;;;;5314496;28;20408;-80
2022/06/24 05:43:35;;;;;;;15.83;14.13;;;;;;;;;;5296608;27;20075;-80
2022/06/24 05:46:06;;;;;;;16.37;14.47;;;;;;;;;;5317189;27;20790;-80
2022/06/24 05:48:38;;;;;;;21.40;15.77;;;;;;;;;;5300962;28;20108;-80
2022/06/24 05:51:10;;;;;;;18.08;15.15;;;;;;;;;;5311019;27;20741;-80
2022/06/24 05:56:31;;;;;;;16.08;14.57;;;;;;;;;;5323468;27;20119;-80
2022/06/24 05:59:03;;;;;;;17.30;15.20;;;;;;;;;;5318548;27;20559;-80
2022/06/24 06:01:35;;;;;;;18.80;16.90;;;;;;;;;;5314509;27;20063;-81
2022/06/24 06:04:07;;;;;;;20.70;17.67;;;;;;;;;;5315373;27;20032;-81
2022/06/24 06:06:38;;;;;;;23.27;19.20;;;;;;;;;;5317549;27;20473;-81
2022/06/24 06:09:10;;;;;;;26.33;21.25;;;;;;;;;;5326133;27;20287;-81
2022/06/24 06:11:42;;;;;;;25.88;22.30;;;;;;;;;;5298614;27;20039;-81
2022/06/24 06:14:13;;;;;;;26.13;21.30;;;;;;;;;;5314885;28;20408;-81
2022/06/24 06:16:47;;;;;;;35.97;24.83;;;;;;;;;;5294552;27;20042;-81
2022/06/24 06:19:18;;;;;;;28.25;21.50;;;;;;;;;;5314480;27;20412;-81
2022/06/24 06:21:49;;;;;;;30.27;23.23;;;;;;;;;;5292579;27;20046;-81
2022/06/24 06:24:20;;;;;;;47.97;28.10;;;;;;;;;;5318370;27;20035;-82
2022/06/24 06:26:51;;;;;;;52.88;32.92;;;;;;;;;;5317502;27;20030;-82
2022/06/24 06:29:23;;;;;;;40.80;27.13;;;;;;;;;;5329742;27;20085;-82
2022/06/24 06:31:55;;;;;;;46.28;30.75;;;;;;;;;;5317376;27;20336;-82
2022/06/24 06:34:26;;;;;;;52.60;32.15;;;;;;;;;;5296346;27;20020;-82
2022/06/24 06:36:57;;;;;;;48.70;32.70;;;;;;;;;;5313089;27;20031;-82
2022/06/24 06:39:28;;;;;;;44.97;29.70;;;;;;;;;;5316902;27;20450;-82
2022/06/24 06:41:59;;;;;;;38.20;27.90;;;;;;;;;;5324344;27;20291;-81
2022/06/24 06:44:31;;;;;;;40.73;29.57;;;;;;;;;;5312149;27;20297;-82
2022/06/24 06:47:02;;;;;;;31.87;24.17;;;;;;;;;;5321138;27;20028;-82
2022/06/24 06:49:33;;;;;;;34.22;26.63;;;;;;;;;;5314489;27;20270;-84
2022/06/24 06:52:05;;;;;;;41.40;28.83;;;;;;;;;;5319565;27;20155;-84
2022/06/24 06:54:37;;;;;;;42.78;30.58;;;;;;;;;;5314692;27;20028;-84
2022/06/24 06:57:08;;;;;;;52.58;33.10;;;;;;;;;;5312210;27;20028;-84
2022/06/24 06:59:39;;;;;;;48.43;33.90;;;;;;;;;;5312129;27;20090;-83
2022/06/24 07:02:10;;;;;;;48.55;34.42;;;;;;;;;;5300043;27;20287;-83
2022/06/24 07:04:41;;;;;;;51.50;35.00;;;;;;;;;;5332804;27;20388;-83
2022/06/24 07:07:13;;;;;;;40.30;32.20;;;;;;;;;;5315810;27;20259;-83
2022/06/24 07:09:44;;;;;;;45.80;33.90;;;;;;;;;;5322754;27;20035;-83
2022/06/24 07:12:16;;;;;;;38.17;30.27;;;;;;;;;;5313597;27;20108;-83
2022/06/24 07:14:47;;;;;;;42.47;33.03;;;;;;;;;;5304267;27;20029;-83
2022/06/24 07:17:18;;;;;;;37.35;28.25;;;;;;;;;;5290677;27;20472;-84
2022/06/24 07:19:49;;;;;;;38.50;31.20;;;;;;;;;;5295167;27;20062;-83
2022/06/24 07:22:21;;;;;;;47.45;34.05;;;;;;;;;;5285117;28;20037;-83
2022/06/24 07:24:52;;;;;;;40.37;31.83;;;;;;;;;;5314920;27;20250;-83
2022/06/24 07:27:23;;;;;;;34.13;26.93;;;;;;;;;;5287477;27;20283;-83
2022/06/24 07:29:54;;;;;;;43.13;34.65;;;;;;;;;;5314263;27;20067;-83
2022/06/24 07:32:25;;;;;;;45.63;33.67;;;;;;;;;;5289051;27;20028;-83
2022/06/24 07:34:57;;;;;;;38.70;33.03;;;;;;;;;;5300756;27;20393;-83
2022/06/24 07:37:28;;;;;;;29.77;26.70;;;;;;;;;;5313818;27;20025;-83
2022/06/24 07:39:59;;;;;;;36.07;31.90;;;;;;;;;;5311757;27;20336;-83
2022/06/24 07:42:30;;;;;;;43.67;35.45;;;;;;;;;;5313110;27;20631;-83
2022/06/24 07:45:01;;;;;;;50.23;40.10;;;;;;;;;;5292858;27;20082;-83
2022/06/24 07:47:35;;;;;;;54.30;43.63;;;;;;;;;;5300263;27;20384;-83
2022/06/24 07:50:06;;;;;;;73.85;51.13;;;;;;;;;;5295818;27;20051;-82
2022/06/24 07:52:37;;;;;;;74.80;57.13;;;;;;;;;;5299322;27;20028;-83
2022/06/24 07:57:58;;;;;;;84.18;63.55;;;;;;;;;;5319248;27;20164;-82
2022/06/24 08:00:30;;;;;;;78.95;61.95;;;;;;;;;;5306017;27;20189;-83
2022/06/24 08:03:01;;;;;;;75.47;60.80;;;;;;;;;;5311422;28;20479;-83
2022/06/24 08:05:32;;;;;;;71.07;55.40;;;;;;;;;;5315743;27;20251;-83
2022/06/24 08:08:03;;;;;;;67.47;56.13;;;;;;;;;;5308684;28;20452;-82
2022/06/24 08:10:35;;;;;;;54.83;48.88;;;;;;;;;;5308947;27;20293;-83
2022/06/24 08:13:06;;;;;;;48.90;43.80;;;;;;;;;;5327286;27;20039;-83
2022/06/24 08:15:37;;;;;;;57.93;50.93;;;;;;;;;;5315102;27;20039;-83
2022/06/24 08:18:08;;;;;;;40.30;36.30;;;;;;;;;;5319329;27;20107;-83
2022/06/24 08:20:40;;;;;;;30.57;27.67;;;;;;;;;;5326965;27;20028;-82
2022/06/24 08:23:11;;;;;;;33.97;30.52;;;;;;;;;;5303960;27;20035;-83
2022/06/24 08:25:42;;;;;;;34.97;31.70;;;;;;;;;;5325967;27;20024;-83
2022/06/24 08:28:13;;;;;;;26.50;24.00;;;;;;;;;;5326941;27;20628;-83
2022/06/24 08:30:44;;;;;;;24.63;22.40;;;;;;;;;;5328154;27;20064;-83
2022/06/24 08:33:16;;;;;;;22.40;20.20;;;;;;;;;;5316678;27;20758;-82
2022/06/24 08:35:47;;;;;;;21.07;19.13;;;;;;;;;;5315739;27;20261;-83
2022/06/24 08:38:18;;;;;;;20.90;18.92;;;;;;;;;;5322886;27;20602;-84
2022/06/24 08:40:52;;;;;;;17.40;15.65;;;;;;;;;;5305275;27;20036;-83
2022/06/24 08:43:23;;;;;;;12.50;11.45;;;;;;;;;;5301202;27;20058;-83
2022/06/24 08:45:56;;;;;;;11.65;10.57;;;;;;;;;;5313590;27;20027;-82
2022/06/24 08:48:28;;;;;;;11.82;10.55;;;;;;;;;;5304362;27;20024;-83
2022/06/24 08:51:00;;;;;;;11.00;10.00;;;;;;;;;;5321109;27;20048;-82
2022/06/24 08:53:33;;;;;;;13.30;12.20;;;;;;;;;;5323783;27;20476;-83
2022/06/24 08:56:05;;;;;;;14.20;13.00;;;;;;;;;;5301587;27;20109;-83
2022/06/24 08:58:36;;;;;;;16.42;14.93;;;;;;;;;;5304460;27;20131;-82
2022/06/24 09:01:12;;;;;;;18.65;17.05;;;;;;;;;;5321149;27;20535;-82
2022/06/24 09:03:43;;;;;;;16.60;15.23;;;;;;;;;;5309574;27;20063;-82
2022/06/24 09:06:16;;;;;;;13.15;11.98;;;;;;;;;;5304594;27;20062;-83
2022/06/24 09:08:51;;;;;;;15.73;14.32;;;;;;;;;;5326596;27;20070;-83
2022/06/24 09:11:22;;;;;;;16.80;15.40;;;;;;;;;;5318153;27;20482;-83
2022/06/24 09:13:55;;;;;;;18.90;17.30;;;;;;;;;;5316104;27;20103;-83
2022/06/24 09:16:26;;;;;;;19.55;17.88;;;;;;;;;;5318460;27;20396;-83
2022/06/24 09:18:59;;;;;;;20.63;18.93;;;;;;;;;;5311107;27;20028;-83
2022/06/24 09:21:34;;;;;;;20.67;19.08;;;;;;;;;;5300746;27;20289;-84
2022/06/24 09:24:05;;;;;;;21.05;19.35;;;;;;;;;;5306304;28;20032;-83
2022/06/24 09:26:38;;;;;;;20.02;18.40;;;;;;;;;;5304312;28;20039;-84
2022/06/24 09:29:11;;;;;;;18.77;17.30;;;;;;;;;;5314831;28;20044;-83
2022/06/24 09:31:42;;;;;;;16.75;15.35;;;;;;;;;;5294156;27;20056;-83
2022/06/24 09:34:15;;;;;;;14.15;12.85;;;;;;;;;;5310812;27;20116;-84
2022/06/24 09:36:47;;;;;;;11.63;10.63;;;;;;;;;;5291507;27;20034;-84
2022/06/24 09:39:18;;;;;;;11.10;9.98;;;;;;;;;;5310500;27;20499;-84
2022/06/24 09:41:51;;;;;;;9.43;8.63;;;;;;;;;;5306680;27;20040;-83
2022/06/24 09:44:24;;;;;;;8.93;8.00;;;;;;;;;;5306993;27;20036;-84
2022/06/24 09:47:02;;;;;;;7.82;7.13;;;;;;;;;;5312088;27;20189;-83
2022/06/24 09:49:33;;;;;;;6.95;6.35;;;;;;;;;;5307308;27;20500;-83
2022/06/24 09:52:05;;;;;;;6.20;5.60;;;;;;;;;;5313888;27;20081;-83
2022/06/24 09:54:37;;;;;;;6.93;6.25;;;;;;;;;;5314493;27;20047;-84
2022/06/24 09:57:08;;;;;;;7.25;5.57;;;;;;;;;;5296579;27;20119;-83
2022/06/24 10:02:31;;;;;;;6.80;6.15;;;;;;;;;;5307564;27;20033;-83
2022/06/24 10:05:03;;;;;;;7.82;7.07;;;;;;;;;;5311132;27;20051;-83
2022/06/24 10:07:36;;;;;;;7.28;6.65;;;;;;;;;;5313897;27;20365;-82
2022/06/24 10:10:07;;;;;;;8.20;7.15;;;;;;;;;;5316992;27;20048;-83
2022/06/24 10:12:41;;;;;;;7.63;6.93;;;;;;;;;;5320670;27;20066;-84
2022/06/24 10:15:13;;;;;;;7.82;7.18;;;;;;;;;;5311706;27;20468;-83
2022/06/24 10:17:46;;;;;;;8.05;6.90;;;;;;;;;;5328043;27;20043;-83
2022/06/24 10:20:18;;;;;;;9.43;8.63;;;;;;;;;;5328725;27;20439;-83
2022/06/24 10:22:50;;;;;;;9.52;8.57;;;;;;;;;;5325002;28;20036;-83
2022/06/24 10:25:41;;;;;;;7.10;3.28;;;;;;;;;;5341289;27;20024;-82
2022/06/24 10:28:13;;;;;;;8.80;2.83;;;;;;;;;;5323643;27;20036;-83
2022/06/24 10:30:47;;;;;;;15.88;3.03;;;;;;;;;;5326014;28;20016;-83
2022/06/24 10:33:23;;;;;;;9.30;2.70;;;;;;;;;;5325602;28;20020;-84
2022/06/24 10:36:04;;;;;;;4.93;2.10;;;;;;;;;;5325636;28;20103;-84
2022/06/24 10:38:39;;;;;;;2.92;2.63;;;;;;;;;;5324919;28;20036;-83
2022/06/24 10:41:11;;;;;;;4.35;2.95;;;;;;;;;;5325035;28;20028;-83
2022/06/24 10:43:43;;;;;;;5.55;3.35;;;;;;;;;;5318801;27;20097;-83
2022/06/24 10:46:18;;;;;;;4.53;3.97;;;;;;;;;;5315237;27;20032;-83
2022/06/24 10:48:49;;;;;;;5.10;4.30;;;;;;;;;;5312256;27;20066;-83
2022/06/24 10:51:21;;;;;;;5.67;5.13;;;;;;;;;;5314145;27;20060;-83
2022/06/24 10:54:01;;;;;;;9.60;5.15;;;;;;;;;;5301573;27;20318;-83
2022/06/24 10:56:38;;;;;;;6.32;5.22;;;;;;;;;;5319003;27;20040;-83
2022/06/24 10:59:10;;;;;;;4.78;4.10;;;;;;;;;;5307098;27;20039;-83
2022/06/24 11:01:42;;;;;;;5.95;4.15;;;;;;;;;;5315699;27;20028;-82
2022/06/24 11:04:19;;;;;;;4.30;3.35;;;;;;;;;;5318519;27;20029;-82
2022/06/24 11:07:10;;;;;;;4.63;2.88;;;;;;;;;;5297947;27;20032;-83
2022/06/24 11:09:42;;;;;;;3.30;2.95;;;;;;;;;;5322658;27;20032;-83
2022/06/24 11:12:26;;;;;;;4.32;4.03;;;;;;;;;;5314756;27;20381;-83
2022/06/24 11:14:58;;;;;;;5.93;5.15;;;;;;;;;;5311521;27;20036;-83
2022/06/24 11:17:30;;;;;;;5.65;5.15;;;;;;;;;;5302392;27;20472;-83
2022/06/24 11:20:05;;;;;;;6.18;5.45;;;;;;;;;;5308425;27;20028;-83
2022/06/24 11:22:43;;;;;;;7.60;6.77;;;;;;;;;;5322352;27;20333;-84
2022/06/24 11:25:15;;;;;;;6.00;5.43;;;;;;;;;;5288664;27;20064;-84
2022/06/24 11:27:46;;;;;;;4.32;4.03;;;;;;;;;;5313971;27;20457;-83
2022/06/24 11:30:17;;;;;;;3.53;3.23;;;;;;;;;;5295461;27;20387;-83
2022/06/24 11:32:49;;;;;;;3.10;2.13;;;;;;;;;;5298836;28;20323;-83
2022/06/24 11:35:21;;;;;;;1.95;1.50;;;;;;;;;;5318773;27;20024;-83
2022/06/24 11:37:54;;;;;;;2.13;1.85;;;;;;;;;;5307572;27;20115;-83
2022/06/24 11:40:26;;;;;;;2.85;1.83;;;;;;;;;;5314292;27;20029;-84
2022/06/24 11:43:02;;;;;;;3.70;1.80;;;;;;;;;;5291514;27;20044;-83
2022/06/24 11:45:35;;;;;;;2.17;1.98;;;;;;;;;;5299491;27;20020;-83
2022/06/24 11:48:09;;;;;;;1.88;1.73;;;;;;;;;;5322175;27;20031;-82
2022/06/24 11:50:40;;;;;;;7.10;1.80;;;;;;;;;;5306623;27;20043;-83
2022/06/24 11:53:11;;;;;;;3.47;1.40;;;;;;;;;;5319103;27;20490;-83
2022/06/24 11:55:47;;;;;;;2.13;1.53;;;;;;;;;;5322783;27;20476;-83
2022/06/24 11:58:19;;;;;;;1.20;1.10;;;;;;;;;;5301545;27;20024;-83
2022/06/24 12:00:52;;;;;;;1.40;1.30;;;;;;;;;;5324564;27;20053;-83
2022/06/24 12:03:23;;;;;;;1.55;1.40;;;;;;;;;;5317941;27;20032;-83
2022/06/24 12:05:55;;;;;;;1.58;1.48;;;;;;;;;;5314587;27;20031;-83
2022/06/24 12:08:26;;;;;;;1.35;1.20;;;;;;;;;;5314585;27;20121;-83
2022/06/24 12:10:57;;;;;;;1.87;1.60;;;;;;;;;;5315431;27;20452;-82
2022/06/24 12:13:32;;;;;;;2.10;1.53;;;;;;;;;;5329593;27;20332;-83
2022/06/24 12:16:04;;;;;;;2.03;1.40;;;;;;;;;;5298858;28;20119;-83
2022/06/24 12:18:35;;;;;;;2.72;1.40;;;;;;;;;;5299274;28;20493;-83
2022/06/24 12:21:07;;;;;;;1.27;1.13;;;;;;;;;;5301733;28;20090;-83
2022/06/24 12:23:39;;;;;;;1.52;1.42;;;;;;;;;;5283691;28;20028;-83
2022/06/24 12:26:18;;;;;;;1.42;1.30;;;;;;;;;;5291846;27;20059;-83
2022/06/24 12:28:58;;;;;;;1.25;1.15;;;;;;;;;;5298174;28;20135;-83
2022/06/24 12:31:30;;;;;;;1.58;0.90;;;;;;;;;;5302209;28;20052;-83
2022/06/24 12:34:02;;;;;;;0.70;0.70;;;;;;;;;;5302358;28;20083;-83
2022/06/24 12:36:34;;;;;;;0.75;0.68;;;;;;;;;;5298643;28;20052;-83
2022/06/24 12:39:06;;;;;;;1.15;0.70;;;;;;;;;;5324401;27;20036;-83
2022/06/24 12:41:42;;;;;;;0.90;0.70;;;;;;;;;;5315052;27;20082;-83
2022/06/24 12:44:13;;;;;;;;;;;;;;;;;;5299737;28;20056;-83
2022/06/24 12:52:32;;;;;;;1.38;1.13;;;;;;;;;;5322061;28;20431;-82
2022/06/24 12:55:05;;;;;;;5.00;1.23;;;;;;;;;;5305140;27;20096;-83
2022/06/24 12:57:36;;;;;;;1.38;0.80;;;;;;;;;;5293576;28;20024;-83
2022/06/24 13:00:09;;;;;;;1.23;1.10;;;;;;;;;;5326330;28;20077;-83
2022/06/24 13:02:44;;;;;;;1.70;1.00;;;;;;;;;;5326734;28;20028;-82
2022/06/24 13:05:16;;;;;;;1.00;0.90;;;;;;;;;;5326532;27;20121;-83
2022/06/24 13:07:47;;;;;;;1.83;1.20;;;;;;;;;;5286914;28;20020;-83
2022/06/24 13:10:19;;;;;;;2.17;1.10;;;;;;;;;;5298575;28;20073;-83
2022/06/24 13:12:50;;;;;;;1.40;1.30;;;;;;;;;;5307548;28;20016;-83
2022/06/24 13:15:22;;;;;;;2.38;1.50;;;;;;;;;;5325917;28;20052;-83
2022/06/24 13:17:54;;;;;;;2.30;1.40;;;;;;;;;;5308234;28;20074;-83
2022/06/24 13:20:25;;;;;;;2.45;1.50;;;;;;;;;;5306845;28;20020;-83
2022/06/24 13:22:59;;;;;;;1.70;1.40;;;;;;;;;;5307970;28;20087;-83
2022/06/24 13:25:30;;;;;;;2.05;1.50;;;;;;;;;;5307333;28;20024;-83
2022/06/24 13:28:02;;;;;;;3.15;1.80;;;;;;;;;;5301448;28;20024;-82
2022/06/24 13:30:34;;;;;;;8.82;2.50;;;;;;;;;;5326343;28;20024;-83
2022/06/24 13:33:05;;;;;;;3.17;1.80;;;;;;;;;;5324031;27;20464;-83
2022/06/24 13:35:36;;;;;;;2.33;1.70;;;;;;;;;;5289662;28;20032;-83
2022/06/24 13:38:07;;;;;;;1.77;1.48;;;;;;;;;;5286446;28;20166;-82
2022/06/24 13:40:39;;;;;;;2.17;1.80;;;;;;;;;;5315933;27;20024;-82
2022/06/24 13:43:10;;;;;;;1.57;1.40;;;;;;;;;;5305753;28;20131;-83
2022/06/24 13:45:42;;;;;;;1.73;1.40;;;;;;;;;;5323249;27;20019;-83
2022/06/24 13:48:13;;;;;;;2.00;1.05;;;;;;;;;;5347398;27;20740;-83
2022/06/24 13:50:44;;;;;;;2.22;1.25;;;;;;;;;;5346082;27;20106;-83
2022/06/24 13:53:15;;;;;;;1.97;1.20;;;;;;;;;;5363299;27;20023;-83
2022/06/24 13:55:47;;;;;;;3.13;0.93;;;;;;;;;;5308299;28;20087;-82
2022/06/24 13:58:18;;;;;;;1.80;1.10;;;;;;;;;;5315519;28;20274;-82
2022/06/24 14:00:49;;;;;;;3.40;0.90;;;;;;;;;;5318228;27;20036;-83
2022/06/24 14:03:23;;;;;;;1.90;0.97;;;;;;;;;;5286041;28;20060;-83
2022/06/24 14:05:56;;;;;;;2.05;0.93;;;;;;;;;;5315970;27;20031;-83
2022/06/24 14:08:27;;;;;;;0.60;0.60;;;;;;;;;;5307000;28;20484;-82
2022/06/24 14:10:58;;;;;;;5.60;1.03;;;;;;;;;;5325510;27;20055;-82
2022/06/24 14:13:31;;;;;;;1.45;1.15;;;;;;;;;;5325597;28;20030;-82
2022/06/24 14:16:02;;;;;;;1.00;0.90;;;;;;;;;;5325967;28;20074;-83
2022/06/24 14:18:35;;;;;;;0.90;0.90;;;;;;;;;;5312019;28;20385;-82
2022/06/24 14:21:07;;;;;;;1.00;0.82;;;;;;;;;;5304123;28;20025;-82
2022/06/24 14:26:32;;;;;;;2.47;0.90;;;;;;;;;;5302395;28;20247;-82
2022/06/24 14:29:03;;;;;;;1.63;0.90;;;;;;;;;;5303336;28;20096;-82
2022/06/24 14:31:34;;;;;;;1.00;0.47;;;;;;;;;;5341401;27;20028;-82
2022/06/24 14:34:06;;;;;;;1.93;0.53;;;;;;;;;;5339820;27;20024;-82
2022/06/24 14:36:40;;;;;;;2.25;0.70;;;;;;;;;;5312076;27;20305;-82
2022/06/24 14:42:01;;;;;;;1.55;0.60;;;;;;;;;;5303422;28;20459;-82
2022/06/24 14:44:32;;;;;;;0.75;0.50;;;;;;;;;;5284331;28;20094;-83
2022/06/24 14:47:04;;;;;;;2.55;0.90;;;;;;;;;;5285967;28;20012;-82
2022/06/24 14:49:36;;;;;;;1.75;0.70;;;;;;;;;;5284414;28;20071;-83
2022/06/24 14:52:07;;;;;;;0.82;0.63;;;;;;;;;;5298456;28;20028;-83
2022/06/24 14:54:38;;;;;;;1.23;0.70;;;;;;;;;;5300677;28;20060;-82
2022/06/24 14:57:10;;;;;;;1.60;0.60;;;;;;;;;;5288006;28;20627;-82
2022/06/24 14:59:41;;;;;;;2.83;0.67;;;;;;;;;;5323573;28;20020;-82
2022/06/24 15:02:12;;;;;;;0.87;0.70;;;;;;;;;;5306022;28;20614;-83
2022/06/24 15:04:43;;;;;;;0.87;0.57;;;;;;;;;;5324460;28;20032;-82
2022/06/24 15:07:14;;;;;;;1.53;0.50;;;;;;;;;;5322993;27;20028;-82
2022/06/24 15:09:45;;;;;;;1.33;1.00;;;;;;;;;;5323347;28;20259;-82
2022/06/24 15:12:17;;;;;;;1.07;0.67;;;;;;;;;;5324621;28;20035;-82
2022/06/24 15:14:48;;;;;;;2.03;0.50;;;;;;;;;;5323090;27;20448;-82
2022/06/24 15:17:20;;;;;;;0.70;0.57;;;;;;;;;;5322469;27;20028;-82
2022/06/24 15:19:51;;;;;;;2.77;0.60;;;;;;;;;;5305531;28;20024;-83
2022/06/24 15:22:23;;;;;;;1.45;0.80;;;;;;;;;;5305972;28;20338;-82
2022/06/24 15:24:54;;;;;;;0.50;0.50;;;;;;;;;;5313711;27;20036;-82
2022/06/24 15:27:25;;;;;;;1.10;0.60;;;;;;;;;;5323083;27;20024;-82
2022/06/24 15:29:56;;;;;;;1.08;0.70;;;;;;;;;;5295813;28;20028;-82
2022/06/24 15:32:27;;;;;;;1.93;0.60;;;;;;;;;;5313480;27;20056;-82
2022/06/24 15:35:02;;;;;;;2.37;0.97;;;;;;;;;;5303190;28;20271;-82
2022/06/24 15:37:33;;;;;;;1.15;0.60;;;;;;;;;;5284347;28;20031;-82
2022/06/24 15:40:04;;;;;;;1.43;0.80;;;;;;;;;;5298855;28;20032;-82
2022/06/24 15:42:36;;;;;;;3.63;0.80;;;;;;;;;;5287024;28;20369;-83
2022/06/24 15:45:07;;;;;;;1.30;0.73;;;;;;;;;;5317047;27;20040;-82
2022/06/24 15:47:38;;;;;;;1.23;0.70;;;;;;;;;;5324361;28;20103;-83
2022/06/24 15:50:10;;;;;;;0.73;0.70;;;;;;;;;;5323914;28;20058;-83
2022/06/24 15:52:41;;;;;;;0.70;0.70;;;;;;;;;;5340007;27;20089;-82
2022/06/24 15:55:12;;;;;;;1.07;0.87;;;;;;;;;;5339054;27;20070;-83
2022/06/24 15:57:43;;;;;;;2.83;0.50;;;;;;;;;;5323482;28;20036;-83
2022/06/24 16:00:15;;;;;;;0.90;0.60;;;;;;;;;;5311983;28;20317;-83
2022/06/24 16:02:46;;;;;;;1.70;1.05;;;;;;;;;;5314313;27;20027;-82
2022/06/24 16:05:17;;;;;;;2.10;0.60;;;;;;;;;;5345477;27;20085;-82
2022/06/24 16:07:48;;;;;;;0.70;0.67;;;;;;;;;;5345275;27;20024;-82
2022/06/24 16:10:20;;;;;;;0.60;0.60;;;;;;;;;;5304951;27;20059;-82
2022/06/24 16:12:51;;;;;;;1.67;0.60;;;;;;;;;;5309415;27;20031;-82
2022/06/24 16:15:22;;;;;;;2.37;0.60;;;;;;;;;;5342539;27;20360;-82
2022/06/24 16:17:53;;;;;;;2.03;0.85;;;;;;;;;;5304164;28;20266;-83
2022/06/24 16:20:24;;;;;;;1.53;0.80;;;;;;;;;;5329838;27;20040;-82
2022/06/24 16:22:56;;;;;;;1.97;0.67;;;;;;;;;;5328125;28;20027;-82
2022/06/24 16:31:11;;;;;;;2.63;0.88;;;;;;;;;;5328057;28;20032;-83
2022/06/24 16:33:43;;;;;;;3.08;0.77;;;;;;;;;;5320336;28;20021;-82